sensor_id;sensor_type;location;lat;lon;timestamp;pressure;altitude;pressure_sealevel;temperature;humidity
21547;BME280;41275;51.912;4.388;2023-01-28T00:01:22;103013.16;;;10.49;44.95
21547;BME280;41275;51.912;4.388;2023-01-28T00:06:44;103008.03;;;10.47;44.83
21547;BME280;41275;51.912;4.388;2023-01-28T00:12:05;103016.50;;;10.43;44.62
21547;BME280;41275;51.912;4.388;2023-01-28T00:17:26;103013.19;;;10.41;44.37
21547;BME280;41275;51.912;4.388;2023-01-28T00:22:47;103019.47;;;10.40;44.95
21547;BME280;41275;51.912;4.388;2023-01-28T00:28:09;103012.59;;;10.30;44.60
21547;BME280;41275;51.912;4.388;2023-01-28T00:33:30;103004.75;;;10.45;44.59
21547;BME280;41275;51.912;4.388;2023-01-28T00:38:56;103004.25;;;10.50;44.42
21547;BME280;41275;51.912;4.388;2023-01-28T00:44:18;103013.03;;;10.42;44.33
21547;BME280;41275;51.912;4.388;2023-01-28T00:49:39;103008.25;;;10.38;44.55
21547;BME280;41275;51.912;4.388;2023-01-28T00:55:01;103010.91;;;10.38;44.89
21547;BME280;41275;51.912;4.388;2023-01-28T01:00:22;103005.94;;;10.35;44.59
21547;BME280;41275;51.912;4.388;2023-01-28T01:05:47;103012.06;;;10.35;44.67
21547;BME280;41275;51.912;4.388;2023-01-28T01:11:10;103002.59;;;10.41;45.00
21547;BME280;41275;51.912;4.388;2023-01-28T01:16:32;103002.28;;;10.36;44.69
21547;BME280;41275;51.912;4.388;2023-01-28T01:21:55;103004.94;;;10.36;44.80
21547;BME280;41275;51.912;4.388;2023-01-28T01:27:16;103009.59;;;10.34;45.11
21547;BME280;41275;51.912;4.388;2023-01-28T01:32:38;103006.59;;;10.37;44.93
21547;BME280;41275;51.912;4.388;2023-01-28T01:37:59;103004.91;;;10.44;45.03
21547;BME280;41275;51.912;4.388;2023-01-28T01:43:21;102995.25;;;10.59;44.91
21547;BME280;41275;51.912;4.388;2023-01-28T01:48:42;102998.19;;;10.64;44.58
21547;BME280;41275;51.912;4.388;2023-01-28T01:54:04;102997.22;;;10.57;44.80
21547;BME280;41275;51.912;4.388;2023-01-28T01:59:28;103007.53;;;10.52;44.92
21547;BME280;41275;51.912;4.388;2023-01-28T02:04:51;102997.72;;;10.61;44.73
21547;BME280;41275;51.912;4.388;2023-01-28T02:10:12;102991.59;;;10.60;45.10
21547;BME280;41275;51.912;4.388;2023-01-28T02:15:34;102998.47;;;10.46;45.06
21547;BME280;41275;51.912;4.388;2023-01-28T02:38:16;103032.53;;;10.41;45.16
21547;BME280;41275;51.912;4.388;2023-01-28T02:43:44;103030.09;;;10.31;45.56
21547;BME280;41275;51.912;4.388;2023-01-28T02:49:10;103018.19;;;10.36;44.95
21547;BME280;41275;51.912;4.388;2023-01-28T03:00:37;103016.91;;;10.15;45.60
21547;BME280;41275;51.912;4.388;2023-01-28T03:06:06;103023.34;;;10.13;45.18
21547;BME280;41275;51.912;4.388;2023-01-28T03:11:31;103017.03;;;10.14;45.56
21547;BME280;41275;51.912;4.388;2023-01-28T03:17:20;103025.19;;;10.04;45.32
21547;BME280;41275;51.912;4.388;2023-01-28T03:23:13;103025.69;;;10.07;45.34
21547;BME280;41275;51.912;4.388;2023-01-28T03:29:03;103026.31;;;10.09;45.21
21547;BME280;41275;51.912;4.388;2023-01-28T03:34:45;103022.22;;;10.07;45.27
21547;BME280;41275;51.912;4.388;2023-01-28T03:40:25;103023.66;;;10.09;45.48
21547;BME280;41275;51.912;4.388;2023-01-28T03:45:48;103020.88;;;10.11;45.16
21547;BME280;41275;51.912;4.388;2023-01-28T03:51:12;103026.28;;;10.18;45.22
21547;BME280;41275;51.912;4.388;2023-01-28T03:56:33;103028.47;;;10.22;45.09
21547;BME280;41275;51.912;4.388;2023-01-28T04:02:00;103031.59;;;10.18;44.93
21547;BME280;41275;51.912;4.388;2023-01-28T04:07:23;103049.28;;;10.17;44.58
21547;BME280;41275;51.912;4.388;2023-01-28T04:12:44;103057.56;;;10.06;45.04
21547;BME280;41275;51.912;4.388;2023-01-28T04:18:11;103063.72;;;10.06;44.70
21547;BME280;41275;51.912;4.388;2023-01-28T04:23:32;103052.13;;;10.07;44.38
21547;BME280;41275;51.912;4.388;2023-01-28T04:28:54;103057.75;;;10.04;45.00
21547;BME280;41275;51.912;4.388;2023-01-28T04:34:15;103065.19;;;10.09;44.87
21547;BME280;41275;51.912;4.388;2023-01-28T04:39:37;103043.03;;;10.10;44.33
21547;BME280;41275;51.912;4.388;2023-01-28T04:44:58;103041.50;;;10.24;44.10
21547;BME280;41275;51.912;4.388;2023-01-28T04:50:20;103034.41;;;10.16;43.74
21547;BME280;41275;51.912;4.388;2023-01-28T04:55:41;103038.41;;;10.04;43.83
21547;BME280;41275;51.912;4.388;2023-01-28T05:01:02;103039.56;;;9.93;43.86
21547;BME280;41275;51.912;4.388;2023-01-28T05:06:23;103040.72;;;10.07;43.75
21547;BME280;41275;51.912;4.388;2023-01-28T05:11:45;103049.16;;;10.02;43.62
21547;BME280;41275;51.912;4.388;2023-01-28T05:17:06;103058.09;;;9.93;43.43
21547;BME280;41275;51.912;4.388;2023-01-28T05:22:27;103051.16;;;9.92;43.43
21547;BME280;41275;51.912;4.388;2023-01-28T05:27:50;103042.72;;;9.97;43.74
21547;BME280;41275;51.912;4.388;2023-01-28T05:33:11;103032.66;;;9.92;43.70
21547;BME280;41275;51.912;4.388;2023-01-28T05:38:32;103036.59;;;9.96;43.46
21547;BME280;41275;51.912;4.388;2023-01-28T05:43:53;103033.31;;;10.02;43.77
21547;BME280;41275;51.912;4.388;2023-01-28T05:49:15;103034.13;;;9.95;43.85
21547;BME280;41275;51.912;4.388;2023-01-28T05:54:36;103035.28;;;9.92;43.04
21547;BME280;41275;51.912;4.388;2023-01-28T05:59:58;103038.13;;;9.91;42.83
21547;BME280;41275;51.912;4.388;2023-01-28T06:05:19;103036.59;;;9.96;43.31
21547;BME280;41275;51.912;4.388;2023-01-28T06:10:42;103045.38;;;9.97;43.13
21547;BME280;41275;51.912;4.388;2023-01-28T06:16:03;103043.03;;;10.02;43.03
21547;BME280;41275;51.912;4.388;2023-01-28T06:21:25;103041.41;;;9.93;42.55
21547;BME280;41275;51.912;4.388;2023-01-28T06:26:46;103049.81;;;10.04;42.50
21547;BME280;41275;51.912;4.388;2023-01-28T06:32:07;103065.38;;;9.99;42.58
21547;BME280;41275;51.912;4.388;2023-01-28T06:37:28;103057.94;;;10.03;42.47
21547;BME280;41275;51.912;4.388;2023-01-28T06:42:50;103059.25;;;10.07;42.30
21547;BME280;41275;51.912;4.388;2023-01-28T06:48:11;103054.56;;;10.17;42.24
21547;BME280;41275;51.912;4.388;2023-01-28T06:53:32;103066.16;;;10.16;42.27
21547;BME280;41275;51.912;4.388;2023-01-28T06:58:53;103052.28;;;10.22;42.34
21547;BME280;41275;51.912;4.388;2023-01-28T07:04:15;103061.38;;;10.20;41.83
21547;BME280;41275;51.912;4.388;2023-01-28T07:09:36;103064.53;;;10.15;41.80
21547;BME280;41275;51.912;4.388;2023-01-28T07:14:57;103056.91;;;10.12;42.30
21547;BME280;41275;51.912;4.388;2023-01-28T07:20:21;103066.34;;;10.15;42.05
21547;BME280;41275;51.912;4.388;2023-01-28T07:25:42;103067.66;;;10.19;42.22
21547;BME280;41275;51.912;4.388;2023-01-28T07:31:04;103070.13;;;10.20;42.45
21547;BME280;41275;51.912;4.388;2023-01-28T07:36:25;103073.47;;;10.14;42.17
21547;BME280;41275;51.912;4.388;2023-01-28T07:41:46;103066.84;;;10.18;42.62
21547;BME280;41275;51.912;4.388;2023-01-28T07:47:09;103078.72;;;10.06;42.37
21547;BME280;41275;51.912;4.388;2023-01-28T07:52:30;103080.25;;;9.76;43.01
21547;BME280;41275;51.912;4.388;2023-01-28T07:57:58;103089.97;;;9.51;42.72
21547;BME280;41275;51.912;4.388;2023-01-28T08:03:20;103079.25;;;9.44;43.11
21547;BME280;41275;51.912;4.388;2023-01-28T08:08:41;103079.91;;;9.46;42.86
21547;BME280;41275;51.912;4.388;2023-01-28T08:14:02;103077.56;;;9.35;43.55
21547;BME280;41275;51.912;4.388;2023-01-28T08:19:24;103099.22;;;9.30;43.18
21547;BME280;41275;51.912;4.388;2023-01-28T08:24:45;103094.44;;;9.67;43.46
21547;BME280;41275;51.912;4.388;2023-01-28T08:30:07;103110.16;;;9.93;42.89
21547;BME280;41275;51.912;4.388;2023-01-28T08:35:32;103116.78;;;10.05;42.81
21547;BME280;41275;51.912;4.388;2023-01-28T08:40:55;103132.66;;;10.29;42.13
21547;BME280;41275;51.912;4.388;2023-01-28T08:46:17;103139.41;;;10.40;41.71
21547;BME280;41275;51.912;4.388;2023-01-28T08:51:39;103144.19;;;10.53;41.90
21547;BME280;41275;51.912;4.388;2023-01-28T08:57:00;103152.31;;;10.51;41.09
21547;BME280;41275;51.912;4.388;2023-01-28T09:02:21;103154.31;;;10.49;41.33
21547;BME280;41275;51.912;4.388;2023-01-28T09:07:42;103151.66;;;10.57;41.65
21547;BME280;41275;51.912;4.388;2023-01-28T09:13:09;103147.84;;;10.52;41.74
21547;BME280;41275;51.912;4.388;2023-01-28T09:18:30;103152.50;;;10.42;41.94
21547;BME280;41275;51.912;4.388;2023-01-28T09:23:51;103152.84;;;10.30;41.51
21547;BME280;41275;51.912;4.388;2023-01-28T09:29:15;103179.47;;;10.29;41.76
21547;BME280;41275;51.912;4.388;2023-01-28T09:34:37;103177.75;;;10.61;41.59
21547;BME280;41275;51.912;4.388;2023-01-28T09:39:58;103182.00;;;10.86;41.54
21547;BME280;41275;51.912;4.388;2023-01-28T09:45:36;103183.81;;;10.94;41.23
21547;BME280;41275;51.912;4.388;2023-01-28T09:50:59;103201.34;;;10.95;41.50
21547;BME280;41275;51.912;4.388;2023-01-28T09:56:25;103175.50;;;11.05;40.97
21547;BME280;41275;51.912;4.388;2023-01-28T10:02:01;103183.44;;;11.05;41.15
21547;BME280;41275;51.912;4.388;2023-01-28T10:07:51;103192.41;;;10.96;40.78
21547;BME280;41275;51.912;4.388;2023-01-28T10:19:22;103195.94;;;10.72;41.43
21547;BME280;41275;51.912;4.388;2023-01-28T10:24:50;103191.44;;;10.80;41.06
21547;BME280;41275;51.912;4.388;2023-01-28T10:30:21;103179.53;;;10.85;40.89
21547;BME280;41275;51.912;4.388;2023-01-28T10:35:42;103184.44;;;10.96;41.31
21547;BME280;41275;51.912;4.388;2023-01-28T10:41:04;103187.06;;;11.12;40.89
21547;BME280;41275;51.912;4.388;2023-01-28T10:46:29;103176.69;;;11.34;40.48
21547;BME280;41275;51.912;4.388;2023-01-28T10:51:52;103178.31;;;11.35;40.40
21547;BME280;41275;51.912;4.388;2023-01-28T10:57:16;103170.59;;;11.25;40.56
21547;BME280;41275;51.912;4.388;2023-01-28T11:02:38;103160.59;;;11.35;40.24
21547;BME280;41275;51.912;4.388;2023-01-28T11:08:27;103136.22;;;11.63;39.66
21547;BME280;41275;51.912;4.388;2023-01-28T11:13:50;103117.91;;;11.76;39.52
21547;BME280;41275;51.912;4.388;2023-01-28T11:19:13;103092.63;;;11.65;39.41
21547;BME280;41275;51.912;4.388;2023-01-28T11:24:35;103094.78;;;11.62;39.39
21547;BME280;41275;51.912;4.388;2023-01-28T11:29:57;103090.78;;;11.66;39.61
21547;BME280;41275;51.912;4.388;2023-01-28T11:35:27;103086.16;;;11.68;39.70
21547;BME280;41275;51.912;4.388;2023-01-28T11:40:55;103052.84;;;11.65;39.22
21547;BME280;41275;51.912;4.388;2023-01-28T11:52:04;103075.00;;;11.72;39.47
21547;BME280;41275;51.912;4.388;2023-01-28T11:57:44;103074.25;;;11.78;39.30
21547;BME280;41275;51.912;4.388;2023-01-28T12:09:59;103087.47;;;11.87;38.92
21547;BME280;41275;51.912;4.388;2023-01-28T12:21:02;103104.09;;;11.80;38.62
21547;BME280;41275;51.912;4.388;2023-01-28T12:27:05;103113.44;;;11.99;39.42
21547;BME280;41275;51.912;4.388;2023-01-28T12:38:34;103122.94;;;14.89;36.83
21547;BME280;41275;51.912;4.388;2023-01-28T12:44:11;103105.91;;;15.98;34.95
21547;BME280;41275;51.912;4.388;2023-01-28T12:49:40;103088.66;;;16.13;33.92
21547;BME280;41275;51.912;4.388;2023-01-28T12:55:21;103050.25;;;15.94;33.79
21547;BME280;41275;51.912;4.388;2023-01-28T13:00:53;103030.84;;;16.39;32.65
21547;BME280;41275;51.912;4.388;2023-01-28T13:06:30;103010.81;;;17.25;31.45
21547;BME280;41275;51.912;4.388;2023-01-28T13:11:56;103006.34;;;18.12;30.28
21547;BME280;41275;51.912;4.388;2023-01-28T13:17:30;102995.06;;;18.40;29.05
21547;BME280;41275;51.912;4.388;2023-01-28T13:23:00;102997.63;;;18.65;29.04
21547;BME280;41275;51.912;4.388;2023-01-28T13:28:30;103005.81;;;17.10;29.87
21547;BME280;41275;51.912;4.388;2023-01-28T13:39:20;103019.13;;;18.28;29.47
21547;BME280;41275;51.912;4.388;2023-01-28T13:44:42;103011.47;;;17.20;29.71
21547;BME280;41275;51.912;4.388;2023-01-28T13:50:20;103020.88;;;15.28;31.49
21547;BME280;41275;51.912;4.388;2023-01-28T13:55:45;103028.59;;;14.00;33.07
21547;BME280;41275;51.912;4.388;2023-01-28T14:18:24;103040.22;;;17.56;30.78
21547;BME280;41275;51.912;4.388;2023-01-28T14:23:52;103035.56;;;16.43;30.67
21547;BME280;41275;51.912;4.388;2023-01-28T14:35:33;103032.28;;;13.99;33.69
21547;BME280;41275;51.912;4.388;2023-01-28T14:40:59;103027.28;;;13.34;34.47
21547;BME280;41275;51.912;4.388;2023-01-28T14:46:33;103011.72;;;12.94;35.47
21547;BME280;41275;51.912;4.388;2023-01-28T14:52:32;103018.47;;;12.75;35.48
21547;BME280;41275;51.912;4.388;2023-01-28T14:58:03;103019.13;;;12.63;36.45
21547;BME280;41275;51.912;4.388;2023-01-28T15:03:28;103023.19;;;12.59;36.79
21547;BME280;41275;51.912;4.388;2023-01-28T15:08:50;103039.72;;;12.75;36.61
21547;BME280;41275;51.912;4.388;2023-01-28T15:14:15;103036.22;;;12.90;36.37
21547;BME280;41275;51.912;4.388;2023-01-28T15:19:40;103049.19;;;12.99;36.35
21547;BME280;41275;51.912;4.388;2023-01-28T15:25:02;103057.28;;;12.76;36.48
21547;BME280;41275;51.912;4.388;2023-01-28T15:30:29;103058.41;;;12.67;37.10
21547;BME280;41275;51.912;4.388;2023-01-28T15:35:52;103065.56;;;12.67;36.77
21547;BME280;41275;51.912;4.388;2023-01-28T15:41:15;103065.22;;;12.70;37.35
21547;BME280;41275;51.912;4.388;2023-01-28T15:46:38;103038.75;;;12.62;37.34
21547;BME280;41275;51.912;4.388;2023-01-28T15:52:00;103061.78;;;12.76;37.29
21547;BME280;41275;51.912;4.388;2023-01-28T15:57:28;103067.63;;;12.50;37.43
21547;BME280;41275;51.912;4.388;2023-01-28T16:02:52;103076.03;;;12.39;37.95
21547;BME280;41275;51.912;4.388;2023-01-28T16:08:26;103088.19;;;12.48;38.19
21547;BME280;41275;51.912;4.388;2023-01-28T16:13:48;103082.78;;;12.41;38.03
21547;BME280;41275;51.912;4.388;2023-01-28T16:19:22;103081.69;;;12.21;39.17
21547;BME280;41275;51.912;4.388;2023-01-28T16:24:50;103085.28;;;12.28;38.76
21547;BME280;41275;51.912;4.388;2023-01-28T16:30:13;103081.34;;;12.39;38.72
21547;BME280;41275;51.912;4.388;2023-01-28T16:35:35;103059.00;;;12.33;38.96
21547;BME280;41275;51.912;4.388;2023-01-28T16:40:57;103064.19;;;12.41;38.71
21547;BME280;41275;51.912;4.388;2023-01-28T16:46:19;103059.75;;;12.42;38.76
21547;BME280;41275;51.912;4.388;2023-01-28T16:51:41;103075.03;;;12.40;39.15
21547;BME280;41275;51.912;4.388;2023-01-28T16:57:05;103079.06;;;12.36;39.15
21547;BME280;41275;51.912;4.388;2023-01-28T17:02:26;103058.38;;;12.46;39.11
21547;BME280;41275;51.912;4.388;2023-01-28T17:07:48;103077.69;;;12.40;39.43
21547;BME280;41275;51.912;4.388;2023-01-28T17:13:10;103065.41;;;12.39;39.19
21547;BME280;41275;51.912;4.388;2023-01-28T17:18:31;103072.63;;;12.45;39.02
21547;BME280;41275;51.912;4.388;2023-01-28T17:23:52;103077.22;;;12.36;39.10
21547;BME280;41275;51.912;4.388;2023-01-28T17:29:13;103073.09;;;12.34;39.37
21547;BME280;41275;51.912;4.388;2023-01-28T17:34:34;103084.72;;;12.33;39.42
21547;BME280;41275;51.912;4.388;2023-01-28T17:39:56;103083.66;;;12.42;39.86
21547;BME280;41275;51.912;4.388;2023-01-28T17:45:17;103087.94;;;12.43;40.36
21547;BME280;41275;51.912;4.388;2023-01-28T17:50:39;103089.94;;;12.41;40.76
21547;BME280;41275;51.912;4.388;2023-01-28T17:56:00;103087.66;;;12.38;41.16
21547;BME280;41275;51.912;4.388;2023-01-28T18:01:23;103088.03;;;12.35;41.61
21547;BME280;41275;51.912;4.388;2023-01-28T18:06:44;103092.41;;;12.27;41.46
21547;BME280;41275;51.912;4.388;2023-01-28T18:12:09;103082.25;;;12.16;41.62
21547;BME280;41275;51.912;4.388;2023-01-28T18:17:31;103091.50;;;12.20;41.66
21547;BME280;41275;51.912;4.388;2023-01-28T18:22:52;103115.75;;;12.32;41.55
21547;BME280;41275;51.912;4.388;2023-01-28T18:28:13;103117.03;;;12.36;41.63
21547;BME280;41275;51.912;4.388;2023-01-28T18:33:35;103136.81;;;12.34;42.27
21547;BME280;41275;51.912;4.388;2023-01-28T18:38:56;103141.69;;;12.30;42.15
21547;BME280;41275;51.912;4.388;2023-01-28T18:44:17;103152.47;;;12.28;42.30
21547;BME280;41275;51.912;4.388;2023-01-28T18:49:41;103145.75;;;12.18;42.43
21547;BME280;41275;51.912;4.388;2023-01-28T18:55:02;103135.75;;;12.05;42.72
21547;BME280;41275;51.912;4.388;2023-01-28T19:00:24;103130.25;;;11.92;42.88
21547;BME280;41275;51.912;4.388;2023-01-28T19:05:45;103124.63;;;11.87;43.04
21547;BME280;41275;51.912;4.388;2023-01-28T19:11:06;103135.25;;;11.87;43.11
21547;BME280;41275;51.912;4.388;2023-01-28T19:16:28;103133.25;;;11.89;43.48
21547;BME280;41275;51.912;4.388;2023-01-28T19:21:49;103119.97;;;11.89;43.24
21547;BME280;41275;51.912;4.388;2023-01-28T19:27:10;103127.47;;;11.85;43.62
21547;BME280;41275;51.912;4.388;2023-01-28T19:32:31;103128.28;;;11.86;43.53
21547;BME280;41275;51.912;4.388;2023-01-28T19:37:55;103134.34;;;11.94;43.46
21547;BME280;41275;51.912;4.388;2023-01-28T19:43:16;103137.25;;;12.08;43.50
21547;BME280;41275;51.912;4.388;2023-01-28T19:48:38;103128.94;;;12.11;43.23
21547;BME280;41275;51.912;4.388;2023-01-28T19:53:59;103117.09;;;12.13;43.26
21547;BME280;41275;51.912;4.388;2023-01-28T19:59:20;103118.81;;;12.06;43.40
21547;BME280;41275;51.912;4.388;2023-01-28T20:04:41;103116.81;;;12.08;43.38
21547;BME280;41275;51.912;4.388;2023-01-28T20:10:04;103106.75;;;12.03;43.58
21547;BME280;41275;51.912;4.388;2023-01-28T20:15:26;103120.72;;;11.97;43.44
21547;BME280;41275;51.912;4.388;2023-01-28T20:20:54;103123.38;;;11.97;43.83
21547;BME280;41275;51.912;4.388;2023-01-28T20:26:17;103113.03;;;11.88;44.14
21547;BME280;41275;51.912;4.388;2023-01-28T20:31:40;103118.34;;;11.88;44.13
21547;BME280;41275;51.912;4.388;2023-01-28T20:37:01;103125.00;;;11.84;44.21
21547;BME280;41275;51.912;4.388;2023-01-28T20:42:23;103117.72;;;11.77;44.40
21547;BME280;41275;51.912;4.388;2023-01-28T20:47:45;103110.16;;;11.66;44.60
21547;BME280;41275;51.912;4.388;2023-01-28T20:53:06;103099.94;;;11.63;44.27
21547;BME280;41275;51.912;4.388;2023-01-28T20:58:27;103106.53;;;11.67;44.39
21547;BME280;41275;51.912;4.388;2023-01-28T21:03:49;103110.56;;;11.63;44.66
21547;BME280;41275;51.912;4.388;2023-01-28T21:09:10;103095.16;;;11.59;44.97
21547;BME280;41275;51.912;4.388;2023-01-28T21:14:31;103097.69;;;11.52;44.93
21547;BME280;41275;51.912;4.388;2023-01-28T21:19:53;103094.09;;;11.45;44.62
21547;BME280;41275;51.912;4.388;2023-01-28T21:25:14;103097.50;;;11.53;44.87
21547;BME280;41275;51.912;4.388;2023-01-28T21:30:35;103103.00;;;11.52;44.73
21547;BME280;41275;51.912;4.388;2023-01-28T21:35:57;103107.94;;;11.55;45.06
21547;BME280;41275;51.912;4.388;2023-01-28T21:41:18;103118.84;;;11.60;44.96
21547;BME280;41275;51.912;4.388;2023-01-28T21:46:39;103113.19;;;11.63;44.59
21547;BME280;41275;51.912;4.388;2023-01-28T21:52:00;103111.47;;;11.70;44.16
21547;BME280;41275;51.912;4.388;2023-01-28T21:57:22;103103.09;;;11.82;44.13
21547;BME280;41275;51.912;4.388;2023-01-28T22:02:43;103096.22;;;11.95;44.24
21547;BME280;41275;51.912;4.388;2023-01-28T22:08:04;103086.22;;;11.97;44.56
21547;BME280;41275;51.912;4.388;2023-01-28T22:13:25;103089.44;;;11.93;44.35
21547;BME280;41275;51.912;4.388;2023-01-28T22:18:47;103088.81;;;11.91;44.66
21547;BME280;41275;51.912;4.388;2023-01-28T22:24:15;103091.06;;;11.94;44.46
21547;BME280;41275;51.912;4.388;2023-01-28T22:29:36;103080.28;;;11.95;44.67
21547;BME280;41275;51.912;4.388;2023-01-28T22:34:58;103073.06;;;12.04;44.56
21547;BME280;41275;51.912;4.388;2023-01-28T22:40:22;103087.28;;;12.11;44.21
21547;BME280;41275;51.912;4.388;2023-01-28T22:45:43;103067.69;;;12.12;44.50
21547;BME280;41275;51.912;4.388;2023-01-28T22:51:13;103067.41;;;12.07;44.06
21547;BME280;41275;51.912;4.388;2023-01-28T22:56:35;103052.75;;;11.96;44.16
21547;BME280;41275;51.912;4.388;2023-01-28T23:01:56;103064.00;;;11.98;44.44
21547;BME280;41275;51.912;4.388;2023-01-28T23:07:18;103055.94;;;11.92;44.36
21547;BME280;41275;51.912;4.388;2023-01-28T23:12:39;103068.28;;;11.85;44.59
21547;BME280;41275;51.912;4.388;2023-01-28T23:18:00;103063.03;;;11.76;44.30
21547;BME280;41275;51.912;4.388;2023-01-28T23:23:40;103053.31;;;11.69;44.68
21547;BME280;41275;51.912;4.388;2023-01-28T23:29:23;103054.13;;;11.69;45.17
21547;BME280;41275;51.912;4.388;2023-01-28T23:34:45;103049.84;;;11.68;44.89
21547;BME280;41275;51.912;4.388;2023-01-28T23:40:06;103038.00;;;11.71;44.63
21547;BME280;41275;51.912;4.388;2023-01-28T23:45:28;103029.91;;;11.72;45.27
21547;BME280;41275;51.912;4.388;2023-01-28T23:50:53;103030.31;;;11.84;45.19
21547;BME280;41275;51.912;4.388;2023-01-28T23:56:15;103025.94;;;11.91;45.22
